createdAt,value
2023-03-31T00:02:30.088Z,38.63
2023-03-31T00:05:18.307Z,38.55
2023-03-31T00:08:04.685Z,38.91
2023-03-31T00:10:50.616Z,38.85
2023-03-31T00:13:37.004Z,38.88
2023-03-31T00:16:23.452Z,39.12
2023-03-31T00:19:27.818Z,38.87
2023-03-31T00:22:15.079Z,39.05
2023-03-31T00:25:01.018Z,38.84
2023-03-31T00:27:47.145Z,39.11
2023-03-31T00:30:33.269Z,39.33
2023-03-31T00:33:19.375Z,39.53
2023-03-31T00:36:10.020Z,39.58
2023-03-31T00:39:02.610Z,39.70
2023-03-31T00:41:49.577Z,39.59
2023-03-31T00:44:37.821Z,39.75
2023-03-31T00:47:23.658Z,39.80
2023-03-31T00:50:18.895Z,40.07
2023-03-31T00:53:14.685Z,39.80
2023-03-31T00:56:07.909Z,39.88
2023-03-31T00:58:59.786Z,40.22
2023-03-31T01:01:47.025Z,40.15
2023-03-31T01:04:39.833Z,40.53
2023-03-31T01:07:38.117Z,40.24
2023-03-31T01:10:23.927Z,40.27
2023-03-31T01:13:15.061Z,40.34
2023-03-31T01:16:01.369Z,40.10
2023-03-31T01:18:49.814Z,40.43
2023-03-31T01:21:53.829Z,40.76
2023-03-31T01:25:02.338Z,41.20
2023-03-31T01:28:19.764Z,40.99
2023-03-31T01:31:44.265Z,41.11
2023-03-31T01:35:09.629Z,41.89
2023-03-31T01:38:39.415Z,41.42
2023-03-31T01:41:40.765Z,40.92
2023-03-31T01:44:29.777Z,40.52
2023-03-31T01:47:44.590Z,41.45
2023-03-31T01:50:40.089Z,40.72
2023-03-31T01:53:41.804Z,42.28
2023-03-31T01:56:35.189Z,41.27
2023-03-31T01:59:41.316Z,41.99
2023-03-31T02:02:31.662Z,41.44
2023-03-31T02:05:21.314Z,41.49
2023-03-31T02:08:23.291Z,42.30
2023-03-31T02:11:10.403Z,41.17
2023-03-31T02:13:56.880Z,41.38
2023-03-31T02:16:47.446Z,41.67
2023-03-31T02:19:39.738Z,42.21
2023-03-31T02:22:27.060Z,41.74
2023-03-31T02:25:15.906Z,41.83
2023-03-31T02:28:15.755Z,42.84
2023-03-31T02:31:06.882Z,42.02
2023-03-31T02:33:53.291Z,42.11
2023-03-31T02:36:41.309Z,41.56
2023-03-31T02:39:31.198Z,42.70
2023-03-31T02:42:20.137Z,42.47
2023-03-31T02:45:54.537Z,43.42
2023-03-31T02:48:50.534Z,43.30
2023-03-31T02:51:42.195Z,42.80
2023-03-31T02:55:31.868Z,43.34
2023-03-31T02:58:44.950Z,43.71
2023-03-31T03:02:58.821Z,44.87
2023-03-31T03:05:58.967Z,43.13
2023-03-31T03:09:37.778Z,43.26
2023-03-31T03:12:45.547Z,43.56
2023-03-31T03:15:37.403Z,42.80
2023-03-31T03:18:23.320Z,43.15
2023-03-31T03:21:09.414Z,42.83
2023-03-31T03:23:55.617Z,42.94
2023-03-31T03:26:41.627Z,43.12
2023-03-31T03:29:27.774Z,43.63
2023-03-31T03:32:13.795Z,43.29
2023-03-31T03:35:03.520Z,43.72
2023-03-31T03:37:49.219Z,43.67
2023-03-31T03:40:35.276Z,43.53
2023-03-31T03:43:21.064Z,43.48
2023-03-31T03:46:07.062Z,43.56
2023-03-31T03:48:53.499Z,43.29
2023-03-31T03:51:39.150Z,43.71
2023-03-31T03:54:26.368Z,43.41
2023-03-31T03:57:15.619Z,44.29
2023-03-31T04:00:01.603Z,43.52
2023-03-31T04:03:44.257Z,45.28
2023-03-31T04:06:30.322Z,44.08
2023-03-31T04:09:16.304Z,44.63
2023-03-31T04:12:18.256Z,45.48
2023-03-31T04:15:06.983Z,44.55
2023-03-31T04:17:54.868Z,43.89
2023-03-31T04:20:40.861Z,44.48
2023-03-31T04:23:26.722Z,43.90
2023-03-31T04:26:14.083Z,44.16
2023-03-31T04:29:02.707Z,44.17
2023-03-31T04:32:04.663Z,45.13
2023-03-31T04:34:50.823Z,44.57
2023-03-31T04:37:38.946Z,44.61
2023-03-31T04:40:25.601Z,44.79
2023-03-31T04:43:11.424Z,44.61
2023-03-31T04:45:57.248Z,44.97
2023-03-31T04:48:42.863Z,45.06
2023-03-31T04:51:29.345Z,44.56
2023-03-31T04:54:15.539Z,45.00
2023-03-31T04:57:01.661Z,44.89
2023-03-31T04:59:47.195Z,44.84
2023-03-31T05:02:32.803Z,45.09
2023-03-31T05:05:19.122Z,44.64
2023-03-31T05:08:05.534Z,45.06
2023-03-31T05:10:51.635Z,45.29
2023-03-31T05:13:37.978Z,44.69
2023-03-31T05:16:29.378Z,44.65
2023-03-31T05:19:15.134Z,44.92
2023-03-31T05:22:00.920Z,44.55
2023-03-31T05:24:47.362Z,45.16
2023-03-31T05:27:33.289Z,45.15
2023-03-31T05:30:18.914Z,44.59
2023-03-31T05:33:04.622Z,44.87
2023-03-31T05:35:50.575Z,45.09
2023-03-31T05:38:36.565Z,45.04
2023-03-31T05:41:22.501Z,45.02
2023-03-31T05:44:08.620Z,45.36
2023-03-31T05:46:54.788Z,44.70
2023-03-31T05:49:42.121Z,44.92
2023-03-31T05:52:34.261Z,44.86
2023-03-31T05:55:21.154Z,45.20
2023-03-31T05:58:09.188Z,45.58
2023-03-31T06:01:06.707Z,45.20
2023-03-31T06:03:53.446Z,45.15
2023-03-31T06:06:39.654Z,45.03
2023-03-31T06:09:26.341Z,44.80
2023-03-31T06:12:12.080Z,44.72
2023-03-31T06:14:58.699Z,44.92
2023-03-31T06:17:44.813Z,45.29
2023-03-31T06:20:30.677Z,44.44
2023-03-31T06:23:16.697Z,44.71
2023-03-31T06:26:06.517Z,44.99
2023-03-31T06:28:52.523Z,45.38
2023-03-31T06:31:38.411Z,44.93
2023-03-31T06:34:24.224Z,45.05
2023-03-31T06:37:10.053Z,44.69
2023-03-31T06:39:58.012Z,45.23
2023-03-31T06:42:45.322Z,45.01
2023-03-31T06:45:31.166Z,44.71
2023-03-31T06:48:16.924Z,44.73
2023-03-31T06:51:04.910Z,44.82
2023-03-31T06:53:51.345Z,44.48
2023-03-31T06:56:37.085Z,44.30
2023-03-31T06:59:22.819Z,44.36
2023-03-31T07:02:10.353Z,44.39
2023-03-31T07:04:56.071Z,44.46
2023-03-31T07:07:43.281Z,45.01
2023-03-31T07:10:31.431Z,44.76
2023-03-31T07:13:18.046Z,44.97
2023-03-31T07:16:07.250Z,45.12
2023-03-31T07:18:59.658Z,45.01
2023-03-31T07:21:45.772Z,45.02
2023-03-31T07:24:31.773Z,44.77
2023-03-31T07:27:17.329Z,45.19
2023-03-31T07:30:17.224Z,44.71
2023-03-31T07:33:03.036Z,44.75
2023-03-31T07:35:56.838Z,44.74
2023-03-31T07:38:57.631Z,44.66
2023-03-31T07:41:43.473Z,44.96
2023-03-31T07:44:29.415Z,44.74
2023-03-31T07:47:15.036Z,44.77
2023-03-31T07:50:00.876Z,44.55
2023-03-31T07:52:47.501Z,44.91
2023-03-31T07:55:33.545Z,44.38
2023-03-31T07:58:19.254Z,44.66
2023-03-31T08:01:36.957Z,46.58
2023-03-31T08:04:30.857Z,44.96
2023-03-31T08:07:16.909Z,44.74
2023-03-31T08:10:03.976Z,44.72
2023-03-31T08:12:55.821Z,44.62
2023-03-31T08:20:12.962Z,44.32
2023-03-31T08:23:09.362Z,44.17
2023-03-31T08:25:54.959Z,43.95
2023-03-31T08:33:21.755Z,43.69
2023-03-31T08:36:10.839Z,43.88
2023-03-31T08:38:56.744Z,43.75
2023-03-31T08:41:48.253Z,43.72
2023-03-31T08:44:51.440Z,44.03
2023-03-31T08:47:38.166Z,43.84
2023-03-31T08:50:27.695Z,43.80
2023-03-31T08:53:37.836Z,43.88
2023-03-31T08:56:24.746Z,43.39
2023-03-31T08:59:32.637Z,43.27
2023-03-31T09:02:48.947Z,43.21
2023-03-31T09:05:59.438Z,42.99
2023-03-31T09:08:45.819Z,42.88
2023-03-31T09:11:54.155Z,42.74
2023-03-31T09:15:01.259Z,41.66
2023-03-31T09:17:50.039Z,42.27
2023-03-31T09:20:38.489Z,42.14
2023-03-31T09:23:44.807Z,41.09
2023-03-31T09:26:35.074Z,42.42
2023-03-31T09:29:53.922Z,40.49
2023-03-31T09:32:40.073Z,42.30
2023-03-31T09:35:26.738Z,42.20
2023-03-31T09:38:14.785Z,41.71
2023-03-31T09:41:02.118Z,41.03
2023-03-31T09:43:49.565Z,41.06
2023-03-31T09:46:36.858Z,41.02
2023-03-31T09:49:26.700Z,40.98
2023-03-31T09:52:32.276Z,38.51
2023-03-31T09:55:39.552Z,40.22
2023-03-31T09:58:27.250Z,40.89
2023-03-31T10:01:14.571Z,40.44
2023-03-31T10:04:00.641Z,40.34
2023-03-31T10:06:47.581Z,40.17
2023-03-31T10:09:34.408Z,40.28
2023-03-31T10:12:24.500Z,40.03
2023-03-31T10:15:20.157Z,39.37
2023-03-31T10:18:06.289Z,40.11
2023-03-31T10:20:53.431Z,39.89
2023-03-31T10:23:39.438Z,39.38
2023-03-31T10:26:27.596Z,39.33
2023-03-31T10:29:14.009Z,39.35
2023-03-31T10:32:12.218Z,37.90
2023-03-31T10:35:04.264Z,39.15
2023-03-31T10:37:51.373Z,39.07
2023-03-31T10:40:37.494Z,39.05
2023-03-31T10:43:54.153Z,37.25
2023-03-31T10:46:51.342Z,38.49
2023-03-31T10:49:40.092Z,38.94
2023-03-31T10:52:27.502Z,38.68
2023-03-31T10:55:14.941Z,38.50
2023-03-31T10:58:27.468Z,36.90
2023-03-31T11:01:45.661Z,37.02
2023-03-31T11:04:52.766Z,38.81
2023-03-31T11:08:15.800Z,38.52
2023-03-31T11:11:43.895Z,38.61
2023-03-31T11:15:10.959Z,37.79
2023-03-31T11:18:34.317Z,34.88
2023-03-31T11:21:32.215Z,37.14
2023-03-31T11:24:48.896Z,35.97
2023-03-31T11:28:08.918Z,34.23
2023-03-31T11:31:05.993Z,35.85
2023-03-31T11:34:10.752Z,35.06
2023-03-31T11:37:08.568Z,34.41
2023-03-31T11:40:01.159Z,33.10
2023-03-31T11:42:54.226Z,30.55
2023-03-31T11:46:13.333Z,30.16
2023-03-31T11:49:02.888Z,30.05
2023-03-31T11:52:01.405Z,28.75
2023-03-31T11:54:55.696Z,28.85
2023-03-31T11:57:59.534Z,27.90
2023-03-31T12:00:47.323Z,22.78
2023-03-31T12:03:52.179Z,28.14
2023-03-31T12:06:42.645Z,27.58
2023-03-31T12:09:55.872Z,22.39
2023-03-31T12:13:10.192Z,19.45
2023-03-31T12:16:04.907Z,25.41
2023-03-31T12:19:06.091Z,24.11
2023-03-31T12:22:00.957Z,24.57
2023-03-31T12:24:47.111Z,25.42
2023-03-31T12:27:40.191Z,24.57
2023-03-31T12:30:39.394Z,22.79
2023-03-31T12:33:29.011Z,23.89
2023-03-31T12:36:40.454Z,22.97
2023-03-31T12:39:53.725Z,21.43
2023-03-31T12:42:50.910Z,21.37
2023-03-31T12:45:42.482Z,22.50
2023-03-31T12:48:34.941Z,20.14
2023-03-31T12:51:54.579Z,19.43
2023-03-31T12:55:05.283Z,19.27
2023-03-31T12:57:51.194Z,22.54
2023-03-31T13:00:36.837Z,22.56
2023-03-31T13:03:43.478Z,19.06
2023-03-31T13:06:29.066Z,22.08
2023-03-31T13:09:14.820Z,21.94
2023-03-31T13:12:10.095Z,21.27
2023-03-31T13:18:19.564Z,19.80
2023-03-31T13:21:06.505Z,20.83
2023-03-31T13:23:53.812Z,20.72
2023-03-31T13:26:49.520Z,18.06
2023-03-31T13:29:44.423Z,18.72
2023-03-31T13:32:30.512Z,20.38
2023-03-31T13:35:21.589Z,19.07
2023-03-31T13:38:35.510Z,18.16
2023-03-31T13:41:28.444Z,17.51
2023-03-31T13:44:39.552Z,19.54
2023-03-31T13:47:31.490Z,19.77
2023-03-31T13:50:28.770Z,17.65
2023-03-31T13:53:20.580Z,18.24
2023-03-31T13:56:16.666Z,16.38
2023-03-31T13:59:34.028Z,15.31
2023-03-31T14:02:40.059Z,18.05
2023-03-31T14:06:00.217Z,16.75
2023-03-31T14:08:56.581Z,17.53
2023-03-31T14:11:42.573Z,17.63
2023-03-31T14:14:30.225Z,17.45
2023-03-31T14:17:16.366Z,17.44
2023-03-31T14:20:19.876Z,17.58
2023-03-31T14:23:45.553Z,16.54
2023-03-31T14:26:42.390Z,17.90
2023-03-31T14:29:51.673Z,17.95
2023-03-31T14:32:53.205Z,18.20
2023-03-31T14:35:44.823Z,18.42
2023-03-31T14:38:33.844Z,18.46
2023-03-31T14:41:21.204Z,18.61
2023-03-31T14:44:16.158Z,19.08
2023-03-31T14:47:02.372Z,19.54
2023-03-31T14:49:48.704Z,19.45
2023-03-31T14:52:35.898Z,19.72
2023-03-31T14:55:35.566Z,20.07
2023-03-31T14:58:32.448Z,20.63
2023-03-31T15:01:46.581Z,21.21
2023-03-31T15:04:46.482Z,21.61
2023-03-31T15:07:32.292Z,21.97
2023-03-31T15:10:21.840Z,22.89
2023-03-31T15:13:21.006Z,22.63
2023-03-31T15:16:28.978Z,23.84
2023-03-31T15:19:27.262Z,24.35
2023-03-31T15:22:18.826Z,23.65
2023-03-31T15:25:05.050Z,23.92
2023-03-31T15:27:56.160Z,24.19
2023-03-31T15:30:42.547Z,24.44
2023-03-31T15:33:34.052Z,25.74
2023-03-31T15:36:21.284Z,24.80
2023-03-31T15:39:07.260Z,25.01
2023-03-31T15:41:53.712Z,25.03
2023-03-31T15:44:44.909Z,25.36
2023-03-31T15:47:33.143Z,25.49
2023-03-31T15:50:22.191Z,25.62
2023-03-31T15:53:37.827Z,26.24
2023-03-31T15:56:43.736Z,26.90
2023-03-31T15:59:41.521Z,25.93
2023-03-31T16:02:47.112Z,27.00
2023-03-31T16:05:54.437Z,26.24
2023-03-31T16:08:44.896Z,26.22
2023-03-31T16:11:40.464Z,27.52
2023-03-31T16:14:36.068Z,26.73
2023-03-31T16:17:40.448Z,27.88
2023-03-31T16:20:38.562Z,27.22
2023-03-31T16:23:35.826Z,27.24
2023-03-31T16:26:23.651Z,27.22
2023-03-31T16:29:09.286Z,27.38
2023-03-31T16:32:18.438Z,27.90
2023-03-31T16:35:06.069Z,27.49
2023-03-31T16:37:55.337Z,27.77
2023-03-31T16:40:46.119Z,27.77
2023-03-31T16:43:31.984Z,27.79
2023-03-31T16:46:17.989Z,27.53
2023-03-31T16:49:03.983Z,27.77
2023-03-31T16:51:49.611Z,28.11
2023-03-31T16:54:35.741Z,27.97
2023-03-31T16:57:21.534Z,27.99
2023-03-31T17:00:07.854Z,28.53
2023-03-31T17:02:53.823Z,28.49
2023-03-31T17:05:42.263Z,28.67
2023-03-31T17:08:28.228Z,28.51
2023-03-31T17:11:14.443Z,28.81
2023-03-31T17:14:00.532Z,28.59
2023-03-31T17:16:48.577Z,28.71
2023-03-31T17:19:34.830Z,29.15
2023-03-31T17:22:20.947Z,29.04
2023-03-31T17:25:08.229Z,29.13
2023-03-31T17:27:55.951Z,29.48
2023-03-31T17:30:44.286Z,29.56
2023-03-31T17:33:30.196Z,29.52
2023-03-31T17:36:16.740Z,29.54
2023-03-31T17:39:05.115Z,29.87
2023-03-31T17:41:50.905Z,29.82
2023-03-31T17:44:37.045Z,29.87
2023-03-31T17:47:22.994Z,29.96
2023-03-31T17:50:10.033Z,30.15
2023-03-31T17:52:55.777Z,29.86
2023-03-31T17:55:41.387Z,30.04
2023-03-31T17:58:28.269Z,30.30
2023-03-31T18:01:14.505Z,30.45
2023-03-31T18:04:00.385Z,30.47
2023-03-31T18:06:48.609Z,30.50
2023-03-31T18:09:34.839Z,30.34
2023-03-31T18:12:20.659Z,30.32
2023-03-31T18:15:07.281Z,30.27
2023-03-31T18:17:53.517Z,30.24
2023-03-31T18:20:40.043Z,30.33
2023-03-31T18:23:26.147Z,30.74
2023-03-31T18:26:13.217Z,30.67
2023-03-31T18:28:59.257Z,30.59
2023-03-31T18:31:45.118Z,30.49
2023-03-31T18:34:31.273Z,30.92
2023-03-31T18:37:17.162Z,30.96
2023-03-31T18:40:03.750Z,30.72
2023-03-31T18:42:49.983Z,30.98
2023-03-31T18:45:38.634Z,30.85
2023-03-31T18:48:25.200Z,30.89
2023-03-31T18:51:12.490Z,30.94
2023-03-31T18:53:58.130Z,30.94
2023-03-31T18:56:44.060Z,31.04
2023-03-31T18:59:29.720Z,30.77
2023-03-31T19:02:18.175Z,31.36
2023-03-31T19:05:04.427Z,31.30
2023-03-31T19:07:51.289Z,31.34
2023-03-31T19:10:37.019Z,31.22
2023-03-31T19:13:22.733Z,30.93
2023-03-31T19:16:09.382Z,31.23
2023-03-31T19:18:55.167Z,31.51
2023-03-31T19:21:41.874Z,31.17
2023-03-31T19:24:27.953Z,31.63
2023-03-31T19:27:14.082Z,31.70
2023-03-31T19:30:00.044Z,31.45
2023-03-31T19:32:47.585Z,31.38
2023-03-31T19:35:33.626Z,31.54
2023-03-31T19:38:25.535Z,31.91
2023-03-31T19:41:11.445Z,31.81
2023-03-31T19:43:57.173Z,31.71
2023-03-31T19:46:43.134Z,31.84
2023-03-31T19:49:28.883Z,31.62
2023-03-31T19:52:14.796Z,31.87
2023-03-31T19:55:00.948Z,31.98
2023-03-31T19:57:47.203Z,31.55
2023-03-31T20:00:33.099Z,31.82
2023-03-31T20:03:19.842Z,32.10
2023-03-31T20:06:17.452Z,31.77
2023-03-31T20:09:06.387Z,31.95
2023-03-31T20:11:56.653Z,31.73
2023-03-31T20:14:42.589Z,32.12
2023-03-31T20:17:29.606Z,32.18
2023-03-31T20:20:17.376Z,31.94
2023-03-31T20:23:05.154Z,32.26
2023-03-31T20:25:51.758Z,32.25
2023-03-31T20:28:38.542Z,32.22
2023-03-31T20:31:29.979Z,32.10
2023-03-31T20:34:22.370Z,32.19
2023-03-31T20:37:10.626Z,32.32
2023-03-31T20:39:56.663Z,32.15
2023-03-31T20:42:43.366Z,32.45
2023-03-31T20:45:29.448Z,32.53
2023-03-31T20:48:15.791Z,32.54
2023-03-31T20:51:02.505Z,32.55
2023-03-31T20:53:50.424Z,32.71
2023-03-31T20:56:38.419Z,32.54
2023-03-31T20:59:24.509Z,32.42
2023-03-31T21:02:12.470Z,32.85
2023-03-31T21:04:58.290Z,32.82
2023-03-31T21:07:43.978Z,32.63
2023-03-31T21:10:29.630Z,32.99
2023-03-31T21:13:16.514Z,32.80
2023-03-31T21:16:04.491Z,32.75
2023-03-31T21:18:58.703Z,32.62
2023-03-31T21:21:44.607Z,32.89
2023-03-31T21:24:30.545Z,33.09
2023-03-31T21:27:16.592Z,33.21
2023-03-31T21:30:02.669Z,32.90
2023-03-31T21:32:48.539Z,33.29
2023-03-31T21:35:35.082Z,33.04
2023-03-31T21:38:21.486Z,33.09
2023-03-31T21:41:12.876Z,33.12
2023-03-31T21:44:01.735Z,33.02
2023-03-31T21:46:48.351Z,33.05
2023-03-31T21:49:34.138Z,33.32
2023-03-31T21:52:19.799Z,33.18
2023-03-31T21:55:05.669Z,33.07
2023-03-31T21:57:51.597Z,33.06
2023-03-31T22:00:37.457Z,33.06
2023-03-31T22:03:27.746Z,33.60
2023-03-31T22:06:13.840Z,33.20
2023-03-31T22:08:59.481Z,33.40
2023-03-31T22:11:46.187Z,33.51
2023-03-31T22:14:31.885Z,33.46
2023-03-31T22:17:18.273Z,33.63
2023-03-31T22:20:05.182Z,33.77
2023-03-31T22:22:51.112Z,33.87
2023-03-31T22:25:36.876Z,33.73
2023-03-31T22:28:22.723Z,33.76
2023-03-31T22:31:08.850Z,33.93
2023-03-31T22:33:55.503Z,34.04
2023-03-31T22:36:41.160Z,34.43
2023-03-31T22:39:26.997Z,34.39
2023-03-31T22:42:15.286Z,34.51
2023-03-31T22:45:01.282Z,34.40
2023-03-31T22:47:47.429Z,34.39
2023-03-31T22:50:33.453Z,34.51
2023-03-31T22:53:19.175Z,34.60
2023-03-31T22:56:11.308Z,34.65
2023-03-31T22:58:57.986Z,34.82
2023-03-31T23:01:46.149Z,34.95
2023-03-31T23:04:32.221Z,35.01
2023-03-31T23:07:18.237Z,34.87
2023-03-31T23:10:04.673Z,35.16
2023-03-31T23:12:51.001Z,35.05
2023-03-31T23:15:37.079Z,35.44
2023-03-31T23:18:23.569Z,35.02
2023-03-31T23:21:09.568Z,35.33
2023-03-31T23:23:57.540Z,35.56
2023-03-31T23:26:43.324Z,35.26
2023-03-31T23:29:30.719Z,35.44
2023-03-31T23:32:16.380Z,35.53
2023-03-31T23:35:02.224Z,35.48
2023-03-31T23:37:51.842Z,35.68
2023-03-31T23:40:37.737Z,35.66
2023-03-31T23:43:25.332Z,35.73
2023-03-31T23:46:12.013Z,35.55
2023-03-31T23:48:58.111Z,35.69
2023-03-31T23:51:44.001Z,35.42
2023-03-31T23:54:29.830Z,36.00
2023-03-31T23:57:15.960Z,35.86
